Data for 02/16/2018

Time Sea-Level Adjusted Pressure Absolute Pressure Temperature Relative Humidity Dew Point   
(mb) (inHg) (mb) (inHg) (C) (F) (%) (C) (F)
00:05 1023 30.21 852 25.16 -10.8 12.5 66 -16 3.2
00:10 1023 30.21 852 25.16 -10.3 13.5 64 -15.9 3.4
00:15 1023 30.21 852 25.16 -10.3 13.4 63 -16 3.1
00:20 1023 30.21 852 25.16 -10.8 12.6 67 -15.7 3.7
00:25 1023 30.21 852 25.16 -11.2 11.8 69 -15.9 3.4
00:30 1023 30.21 852 25.16 -11.2 11.8 68 -16 3.2
00:35 1023 30.21 852 25.16 -10.9 12.5 67 -15.9 3.4
00:40 1022 30.18 852 25.16 -10.1 13.8 64 -15.6 3.9
00:45 1022 30.18 852 25.16 -10 14 68 -14.8 5.3
00:50 1022 30.18 851 25.13 -10.1 13.9 64 -15.6 3.9
00:55 1022 30.18 851 25.13 -10.9 12.4 69 -15.6 3.9
01:00 1022 30.18 851 25.13 -11.5 11.4 70 -15.8 3.5
01:05 1022 30.18 851 25.13 -11.4 11.5 71 -15.6 3.9
01:10 1022 30.18 851 25.13 -10.8 12.6 69 -15.5 4.2
01:15 1022 30.18 851 25.13 -10.5 13.1 67 -15.5 4.2
01:20 1022 30.18 851 25.13 -10.8 12.5 69 -15.4 4.3
01:25 1022 30.18 851 25.13 -11.3 11.8 70 -15.6 3.9
01:30 1022 30.18 851 25.13 -11.1 12 70 -15.5 4
01:35 1022 30.18 851 25.13 -10.8 12.6 68 -15.7 3.8
01:40 1022 30.18 851 25.13 -10.9 12.4 71 -15.1 4.8
01:45 1022 30.18 851 25.13 -10.5 13 70 -15.1 4.9
01:50 1022 30.18 851 25.13 -10.2 13.7 66 -15.3 4.4
01:55 1022 30.18 851 25.13 -10.1 13.8 67 -15.2 4.6
02:00 1022 30.18 851 25.13 -10.9 12.4 75 -14.6 5.7
02:05 1021 30.15 851 25.13 -10.8 12.5 71 -15.2 4.6
02:10 1021 30.15 851 25.13 -11.2 11.9 70 -15.6 3.8
02:15 1021 30.15 851 25.13 -11.7 11 73 -15.5 4.1
02:20 1021 30.15 850 25.1 -11.7 10.9 72 -15.8 3.6
02:25 1021 30.15 850 25.1 -11.7 11 73 -15.6 4
02:30 1021 30.15 850 25.1 -11.4 11.5 72 -15.4 4.3
02:35 1021 30.15 850 25.1 -10.8 12.5 70 -15.4 4.4
02:40 1021 30.15 850 25.1 -10.8 12.6 69 -15.4 4.3
02:45 1021 30.15 850 25.1 -10.9 12.5 71 -15.2 4.7
02:50 1021 30.15 850 25.1 -10.5 13.1 69 -15.1 4.9
02:55 1021 30.15 850 25.1 -10 14 67 -15 5
03:00 1021 30.15 850 25.1 -9.8 14.3 66 -15 5.1
03:05 1021 30.15 850 25.1 -9.7 14.5 66 -14.9 5.2
03:10 1021 30.15 850 25.1 -9.5 15 65 -14.8 5.3
03:15 1020 30.12 850 25.1 -9.5 14.9 65 -14.9 5.2
03:20 1020 30.12 850 25.1 -9.6 14.7 66 -14.7 5.5
03:25 1020 30.12 850 25.1 -9.1 15.6 61 -15.3 4.4
03:30 1020 30.12 850 25.1 -8.3 17.1 58 -15.1 4.7
03:35 1020 30.12 849 25.07 -8.1 17.4 58 -14.9 5.2
03:40 1020 30.12 849 25.07 -7.6 18.3 56 -15 5
03:45 1020 30.12 849 25.07 -7.1 19.3 54 -14.8 5.4
03:50 1020 30.12 849 25.07 -6.8 19.7 53 -14.9 5.2
03:55 1020 30.12 849 25.07 -6.6 20.1 54 -14.5 5.9
04:00 1020 30.12 849 25.07 -6.8 19.8 54 -14.5 5.9
04:05 1020 30.12 849 25.07 -6.7 20 54 -14.5 5.9
04:10 1020 30.12 849 25.07 -6.6 20.1 57 -13.9 7.1
04:15 1020 30.12 849 25.07 -7.6 18.4 60 -14.1 6.7
04:20 1020 30.12 849 25.07 -7.5 18.5 56 -14.8 5.3
04:25 1020 30.12 849 25.07 -6.8 19.7 55 -14.6 5.8
04:30 1020 30.12 849 25.07 -6.6 20.1 54 -14.5 6
04:35 1020 30.12 849 25.07 -6.5 20.4 53 -14.5 5.9
04:40 1020 30.12 849 25.07 -6.6 20.2 54 -14.4 6.1
04:45 1020 30.12 849 25.07 -6.7 19.9 54 -14.5 6
04:50 1020 30.12 849 25.07 -7.2 19 55 -14.9 5.2
04:55 1020 30.12 849 25.07 -7.6 18.4 59 -14.2 6.4
05:00 1020 30.12 849 25.07 -8.1 17.5 60 -14.5 5.9
05:05 1020 30.12 849 25.07 -8.3 17.1 63 -14.2 6.5
05:10 1020 30.12 849 25.07 -7.8 18 60 -14.3 6.2
05:15 1020 30.12 849 25.07 -7 19.4 58 -13.9 6.9
05:20 1020 30.12 849 25.07 -6.8 19.7 59 -13.6 7.5
05:25 1020 30.12 849 25.07 -6.5 20.4 55 -14.1 6.7
05:30 1019 30.09 849 25.07 -6.2 20.9 56 -13.6 7.5
05:35 1019 30.09 849 25.07 -6.7 20 61 -13 8.5
05:40 1019 30.09 848 25.04 -7.6 18.3 64 -13.2 8.2
05:45 1019 30.09 848 25.04 -7.5 18.5 61 -13.8 7.1
05:50 1019 30.09 848 25.04 -7 19.3 60 -13.5 7.8
05:55 1019 30.09 848 25.04 -7.2 19 63 -13.1 8.4
06:00 1019 30.09 848 25.04 -7.9 17.9 64 -13.6 7.6
06:05 1019 30.09 848 25.04 -7.7 18.1 62 -13.8 7.2
06:10 1019 30.09 848 25.04 -7.5 18.6 64 -13.2 8.2
06:15 1019 30.09 848 25.04 -7.7 18.2 64 -13.5 7.8
06:20 1019 30.09 848 25.04 -7.8 18 63 -13.7 7.3
06:25 1019 30.09 848 25.04 -8.1 17.4 64 -13.9 7
06:30 1019 30.09 848 25.04 -7.9 17.8 60 -14.3 6.2
06:35 1018 30.06 848 25.04 -7.6 18.4 61 -13.9 7
06:40 1018 30.06 848 25.04 -7.2 19 59 -14 6.8
06:45 1018 30.06 847 25.01 -6.9 19.6 57 -14 6.9
06:50 1018 30.06 847 25.01 -6.7 19.9 58 -13.6 7.5
06:55 1018 30.06 847 25.01 -6.3 20.7 57 -13.4 7.9
07:00 1018 30.06 847 25.01 -6 21.1 56 -13.5 7.7
07:05 1018 30.06 847 25.01 -5.6 22 53 -13.7 7.4
07:10 1018 30.06 847 25.01 -5.2 22.7 53 -13.4 7.9
07:15 1018 30.06 847 25.01 -4.9 23.2 51 -13.5 7.7
07:20 1018 30.06 847 25.01 -4.7 23.5 52 -13.2 8.2
07:25 1018 30.06 847 25.01 -4.6 23.7 51 -13.2 8.2
07:30 1018 30.06 847 25.01 -4.4 24.1 52 -12.9 8.7
07:35 1018 30.06 847 25.01 -4.2 24.4 50 -13.1 8.4
07:40 1018 30.06 847 25.01 -4 24.9 49 -13.3 8.1
07:45 1018 30.06 847 25.01 -3.6 25.5 51 -12.3 9.8
07:50 1018 30.06 847 25.01 -3.6 25.5 52 -12 10.3
07:55 1018 30.06 847 25.01 -4.8 23.3 55 -12.6 9.3
08:00 1018 30.06 847 25.01 -5.3 22.4 57 -12.6 9.3
08:05 1018 30.06 847 25.01 -5.6 21.9 58 -12.5 9.5
08:10 1018 30.06 847 25.01 -5.3 22.4 58 -12.4 9.6
08:15 1018 30.06 847 25.01 -4.9 23.2 57 -12.2 10
08:20 1018 30.06 847 25.01 -4.7 23.6 54 -12.6 9.4
08:25 1018 30.06 847 25.01 -4.4 24.1 53 -12.5 9.5
08:30 1018 30.06 847 25.01 -4 24.9 51 -12.7 9.1
08:35 1018 30.06 847 25.01 -3.5 25.7 49 -12.6 9.3
08:40 1018 30.06 847 25.01 -3.1 26.4 50 -12.2 10
08:45 1018 30.06 847 25.01 -2.7 27.2 45 -13.2 8.3
08:50 1018 30.06 847 25.01 -2.7 27.1 50 -11.7 10.9
08:55 1018 30.06 847 25.01 -2.9 26.8 52 -11.5 11.4
09:00 1018 30.06 847 25.01 -3.2 26.3 50 -12.3 9.9
09:05 1018 30.06 847 25.01 -3.9 25 52 -12.5 9.6
09:10 1018 30.06 847 25.01 -3.7 25.3 51 -12.6 9.4
09:15 1017 30.03 847 25.01 -3.4 25.9 49 -12.6 9.4
09:20 1017 30.03 846 24.98 -3.6 25.6 50 -12.6 9.3
09:25 1017 30.03 846 24.98 -3.6 25.5 47 -13.3 8.1
09:30 1017 30.03 846 24.98 -3.4 25.9 49 -12.8 9
09:35 1017 30.03 846 24.98 -3.3 26.1 47 -13.1 8.3
09:40 1017 30.03 846 24.98 -3.3 26.1 47 -13.1 8.4
09:45 1017 30.03 846 24.98 -3 26.7 47 -12.8 9
09:50 1017 30.03 846 24.98 -2.6 27.4 46 -12.6 9.3
09:55 1017 30.03 846 24.98 -2.3 27.9 47 -12.2 10.1
10:00 1017 30.03 846 24.98 -2.6 27.3 51 -11.5 11.3
10:05 1017 30.03 846 24.98 -2.9 26.7 51 -11.8 10.7
10:10 1017 30.03 846 24.98 -3.1 26.4 51 -11.9 10.6
10:15 1016 30 846 24.98 -3.2 26.2 51 -12 10.4
10:20 1016 30 846 24.98 -3.1 26.4 50 -12 10.4
10:25 1016 30 846 24.98 -3.1 26.4 52 -11.7 10.9
10:30 1016 30 846 24.98 -3 26.5 51 -11.7 10.9
10:35 1016 30 846 24.98 -2.7 27.2 50 -11.7 10.9
10:40 1016 30 846 24.98 -2.3 27.9 50 -11.3 11.6
10:45 1016 30 846 24.98 -2 28.3 47 -11.9 10.5
10:50 1016 30 846 24.98 -1.7 28.9 46 -12 10.5
10:55 1016 30 846 24.98 -1.5 29.2 45 -12.1 10.2
11:00 1016 30 846 24.98 -1.4 29.5 45 -11.9 10.5
11:05 1016 30 845 24.95 -1.3 29.6 45 -11.7 10.9
11:10 1016 30 845 24.95 -1.4 29.5 44 -12 10.3
11:15 1016 30 845 24.95 -1.6 29.1 46 -11.8 10.8
11:20 1016 30 845 24.95 -1.7 29 47 -11.7 11
11:25 1016 30 845 24.95 -1.7 28.9 47 -11.6 11.1
11:30 1016 30 845 24.95 -1.8 28.8 48 -11.4 11.5
11:35 1016 30 845 24.95 -1.9 28.7 52 -10.4 13.3
11:40 1016 30 845 24.95 -2 28.4 52 -10.5 13.1
11:45 1016 30 845 24.95 -2 28.3 54 -10.2 13.6
11:50 1015 29.97 845 24.95 -2 28.4 56 -9.6 14.8
11:55 1015 29.97 844 24.92 -2 28.4 55 -9.9 14.1
12:00 1015 29.97 844 24.92 -1.9 28.5 55 -9.8 14.3
12:05 1015 29.97 844 24.92 -1.8 28.7 54 -9.9 14.2
12:10 1015 29.97 844 24.92 -1.6 29.1 51 -10.4 13.4
12:15 1015 29.97 844 24.92 -1.7 29 52 -10.3 13.4
12:20 1015 29.97 844 24.92 -1.6 29.2 52 -10.2 13.7
12:25 1015 29.97 844 24.92 -1.8 28.8 53 -10 14
12:30 1015 29.97 844 24.92 -1.5 29.2 52 -10.1 13.9
12:35 1014 29.94 844 24.92 -1.7 28.9 51 -10.5 13.1
12:40 1014 29.94 843 24.89 -1.6 29.1 48 -11.2 11.8
12:45 1014 29.94 843 24.89 -1.5 29.4 49 -10.8 12.6
12:50 1014 29.94 843 24.89 -1.2 29.8 48 -10.8 12.5
12:55 1014 29.94 843 24.89 -1.2 29.8 46 -11.3 11.7
13:00 1014 29.94 843 24.89 -1 30.1 45 -11.5 11.2
13:05 1014 29.94 843 24.89 -0.7 30.7 45 -11.3 11.6
13:10 1013 29.91 843 24.89 -0.6 31 44 -11.4 11.4
13:15 1013 29.91 842 24.86 -0.7 30.8 45 -11.3 11.6
13:20 1013 29.91 842 24.86 -0.7 30.7 45 -11.2 11.9
13:25 1013 29.91 842 24.86 -0.6 30.9 44 -11.3 11.7
13:30 1013 29.91 842 24.86 -0.6 30.9 44 -11.3 11.6
13:35 1013 29.91 842 24.86 -0.6 31 45 -11.2 11.8
13:40 1013 29.91 842 24.86 -0.5 31 43 -11.6 11.2
13:45 1013 29.91 842 24.86 -0.5 31.1 43 -11.4 11.4
13:50 1013 29.91 842 24.86 -0.4 31.2 43 -11.5 11.3
13:55 1013 29.91 842 24.86 -0.4 31.2 42 -11.8 10.7
14:00 1013 29.91 842 24.86 -0.4 31.3 41 -12 10.4
14:05 1013 29.91 842 24.86 -0.3 31.4 43 -11.5 11.3
14:10 1013 29.91 842 24.86 -0.3 31.4 41 -12.2 10.1
14:15 1013 29.91 842 24.86 -0.4 31.3 42 -11.8 10.7
14:20 1013 29.91 842 24.86 -0.5 31.1 45 -11.1 11.9
14:25 1013 29.91 842 24.86 -0.6 30.9 42 -11.9 10.6
14:30 1013 29.91 842 24.86 -0.5 31.1 44 -11.3 11.7
14:35 1012 29.88 842 24.86 -0.6 31 43 -11.6 11.1
14:40 1012 29.88 842 24.86 -0.6 31 42 -12 10.5
14:45 1012 29.88 842 24.86 -0.4 31.2 42 -11.8 10.8
14:50 1012 29.88 842 24.86 -0.5 31.1 43 -11.6 11.1
14:55 1012 29.88 842 24.86 -0.6 31 44 -11.4 11.5
15:00 1012 29.88 842 24.86 -0.5 31.1 43 -11.7 10.9
15:05 1012 29.88 842 24.86 -0.5 31.2 43 -11.7 11
15:10 1012 29.88 842 24.86 -0.5 31 44 -11.4 11.5
15:15 1012 29.88 842 24.86 -0.6 30.9 44 -11.4 11.5
15:20 1012 29.88 841 24.83 -0.7 30.8 44 -11.4 11.5
15:25 1012 29.88 841 24.83 -0.6 30.8 43 -11.8 10.8
15:30 1012 29.88 841 24.83 -0.6 30.9 43 -11.6 11.1
15:35 1012 29.88 841 24.83 -0.6 30.9 45 -11.2 11.8
15:40 1012 29.88 841 24.83 -0.6 30.8 46 -11 12.2
15:45 1012 29.88 841 24.83 -0.7 30.7 44 -11.4 11.5
15:50 1012 29.88 841 24.83 -0.7 30.8 46 -10.9 12.3
15:55 1012 29.88 841 24.83 -0.7 30.7 44 -11.4 11.4
16:00 1012 29.88 841 24.83 -0.7 30.7 45 -11.2 11.9
16:05 1012 29.88 841 24.83 -0.7 30.7 46 -11 12.2
16:10 1012 29.88 841 24.83 -0.7 30.7 46 -10.8 12.5
16:15 1012 29.88 841 24.83 -0.7 30.7 46 -10.9 12.4
16:20 1012 29.88 841 24.83 -0.9 30.5 47 -10.7 12.7
16:25 1012 29.88 841 24.83 -0.9 30.4 46 -11 12.1
16:30 1012 29.88 841 24.83 -0.9 30.5 47 -10.8 12.5
16:35 1012 29.88 841 24.83 -0.9 30.4 48 -10.7 12.8
16:40 1012 29.88 841 24.83 -0.9 30.3 48 -10.5 13.1
16:45 1012 29.88 841 24.83 -1 30.2 47 -10.9 12.4
16:50 1012 29.88 841 24.83 -1 30.1 49 -10.5 13.1
16:55 1012 29.88 841 24.83 -1.1 30.1 50 -10.3 13.4
17:00 1012 29.88 841 24.83 -1.1 30 50 -10.4 13.3
17:05 1012 29.88 841 24.83 -1.2 29.9 50 -10.2 13.6
17:10 1012 29.88 841 24.83 -1.2 29.9 50 -10.3 13.5
17:15 1012 29.88 841 24.83 -1.3 29.7 52 -9.9 14.2
17:20 1012 29.88 841 24.83 -1.3 29.6 53 -9.6 14.6
17:25 1012 29.88 841 24.83 -1.3 29.6 53 -9.8 14.3
17:30 1012 29.88 841 24.83 -1.3 29.6 53 -9.7 14.5
17:35 1012 29.88 841 24.83 -1.3 29.6 54 -9.5 14.9
17:40 1012 29.88 841 24.83 -1.3 29.6 54 -9.6 14.7
17:45 1012 29.88 841 24.83 -1.3 29.7 52 -10 14.1
17:50 1012 29.88 841 24.83 -1.1 30 53 -9.5 14.8
17:55 1012 29.88 841 24.83 -1.2 29.8 54 -9.5 14.9
18:00 1012 29.88 841 24.83 -1.3 29.7 55 -9.3 15.2
18:05 1012 29.88 841 24.83 -1.3 29.6 55 -9.3 15.3
18:10 1012 29.88 841 24.83 -1.3 29.6 55 -9.3 15.2
18:15 1012 29.88 841 24.83 -1.3 29.7 54 -9.5 15
18:20 1012 29.88 841 24.83 -1.3 29.7 54 -9.5 15
18:25 1012 29.88 841 24.83 -1.3 29.7 53 -9.7 14.6
18:30 1012 29.88 841 24.83 -1.2 29.8 52 -9.8 14.3
18:35 1012 29.88 841 24.83 -1.2 29.8 53 -9.7 14.6
18:40 1012 29.88 841 24.83 -1.3 29.7 53 -9.5 14.8
18:45 1012 29.88 841 24.83 -1.4 29.5 54 -9.5 14.9
18:50 1012 29.88 841 24.83 -1.4 29.4 54 -9.5 14.9
18:55 1012 29.88 841 24.83 -1.3 29.7 53 -9.7 14.5
19:00 1012 29.88 841 24.83 -1.2 29.9 53 -9.4 15
19:05 1012 29.88 841 24.83 -1.2 29.9 55 -9.2 15.4
19:10 1012 29.88 841 24.83 -1.1 30 53 -9.5 14.9
19:15 1012 29.88 841 24.83 -1.2 29.9 53 -9.6 14.8
19:20 1012 29.88 841 24.83 -1.3 29.7 54 -9.5 14.9
19:25 1012 29.88 841 24.83 -1.3 29.6 54 -9.5 14.9
19:30 1012 29.88 841 24.83 -1.3 29.7 54 -9.5 14.9
19:35 1012 29.88 841 24.83 -1.3 29.7 54 -9.5 14.9
19:40 1012 29.88 841 24.83 -1.2 29.8 54 -9.3 15.2
19:45 1012 29.88 841 24.83 -1.2 29.8 54 -9.3 15.3
19:50 1012 29.88 841 24.83 -1.3 29.7 54 -9.3 15.2
19:55 1012 29.88 841 24.83 -1.3 29.7 54 -9.3 15.2
20:00 1012 29.88 841 24.83 -1.2 29.8 55 -9.1 15.7
20:05 1012 29.88 841 24.83 -1.3 29.7 55 -9.1 15.6
20:10 1012 29.88 842 24.86 -1.2 29.8 54 -9.3 15.3
20:15 1013 29.91 842 24.86 -1.2 29.9 58 -8.3 17
20:20 1013 29.91 842 24.86 -1.8 28.7 66 -7.4 18.8
20:25 1013 29.91 842 24.86 -2.6 27.4 77 -6.1 20.9
20:30 1013 29.91 843 24.89 -3.2 26.3 82 -5.8 21.5
20:35 1013 29.91 843 24.89 -3.3 26 82 -6 21.2
20:40 1013 29.91 843 24.89 -3.1 26.4 74 -7.1 19.3
20:45 1014 29.94 843 24.89 -2.8 27 77 -6.3 20.6
20:50 1014 29.94 843 24.89 -3 26.7 83 -5.5 22.1
20:55 1014 29.94 843 24.89 -3.4 25.8 87 -5.3 22.4
21:00 1014 29.94 843 24.89 -3.6 25.5 88 -5.4 22.4
21:05 1014 29.94 843 24.89 -3.8 25.2 89 -5.4 22.3
21:10 1014 29.94 843 24.89 -3.9 25.1 89 -5.4 22.3
21:15 1014 29.94 843 24.89 -3.9 25 89 -5.4 22.2
21:20 1013 29.91 843 24.89 -3.8 25.1 88 -5.6 22
21:25 1013 29.91 843 24.89 -3.7 25.4 86 -5.7 21.8
21:30 1014 29.94 843 24.89 -3.6 25.6 85 -5.7 21.8
21:35 1014 29.94 843 24.89 -3.5 25.7 85 -5.7 21.7
21:40 1014 29.94 843 24.89 -3.4 25.9 84 -5.8 21.5
21:45 1014 29.94 843 24.89 -3.6 25.6 86 -5.6 22
21:50 1014 29.94 843 24.89 -3.9 25 88 -5.7 21.8
21:55 1014 29.94 843 24.89 -3.9 24.9 88 -5.7 21.8
22:00 1014 29.94 843 24.89 -3.9 25 88 -5.6 21.9
22:05 1014 29.94 844 24.92 -3.9 25 87 -5.7 21.7
22:10 1014 29.94 844 24.92 -3.8 25.2 83 -6.3 20.6
22:15 1014 29.94 843 24.89 -3.6 25.6 80 -6.5 20.4
22:20 1014 29.94 844 24.92 -3.5 25.7 80 -6.5 20.3
22:25 1014 29.94 844 24.92 -3.4 25.8 79 -6.6 20.2
22:30 1014 29.94 844 24.92 -3.4 25.8 78 -6.7 19.9
22:35 1015 29.97 844 24.92 -3.4 25.9 78 -6.7 19.9
22:40 1015 29.97 844 24.92 -3.3 26.1 68 -8.4 16.9
22:45 1015 29.97 844 24.92 -3 26.7 64 -8.8 16.1
22:50 1015 29.97 844 24.92 -2.7 27.1 65 -8.5 16.7
22:55 1015 29.97 844 24.92 -2.8 27 66 -8.2 17.2
23:00 1015 29.97 844 24.92 -2.8 26.9 67 -8.2 17.3
23:05 1015 29.97 844 24.92 -2.9 26.8 67 -8.1 17.4
23:10 1015 29.97 844 24.92 -3 26.7 68 -8.1 17.3
23:15 1015 29.97 844 24.92 -3.1 26.5 68 -8.1 17.4
23:20 1015 29.97 844 24.92 -3.1 26.4 66 -8.5 16.6
23:25 1015 29.97 844 24.92 -3.1 26.5 64 -8.9 15.9
23:30 1015 29.97 844 24.92 -2.9 26.7 63 -9.1 15.6
23:35 1015 29.97 844 24.92 -2.8 26.9 59 -9.7 14.5
23:40 1015 29.97 844 24.92 -2.7 27.2 58 -9.8 14.4
23:45 1015 29.97 844 24.92 -2.6 27.2 58 -9.9 14.2
23:50 1015 29.97 844 24.92 -2.6 27.2 58 -9.8 14.4
23:55 1015 29.97 844 24.92 -2.7 27.2 59 -9.6 14.7
24:00 1015 29.97 844 24.92 -2.7 27.1 59 -9.8 14.4